sensor_id;sensor_type;location;lat;lon;timestamp;pressure;altitude;pressure_sealevel;temperature;humidity
71361;BME280;59166;48.908;1.870;2023-05-07T00:03:33;100207.41;;;15.21;100.00
71361;BME280;59166;48.908;1.870;2023-05-07T00:08:34;100215.78;;;15.24;100.00
71361;BME280;59166;48.908;1.870;2023-05-07T00:13:35;100216.38;;;15.21;100.00
71361;BME280;59166;48.908;1.870;2023-05-07T00:18:37;100218.72;;;15.09;100.00
71361;BME280;59166;48.908;1.870;2023-05-07T00:23:38;100221.44;;;15.09;100.00
71361;BME280;59166;48.908;1.870;2023-05-07T00:28:39;100224.75;;;15.06;100.00
71361;BME280;59166;48.908;1.870;2023-05-07T00:33:41;100227.41;;;15.11;100.00
71361;BME280;59166;48.908;1.870;2023-05-07T00:38:42;100221.69;;;15.13;100.00
71361;BME280;59166;48.908;1.870;2023-05-07T00:43:43;100223.03;;;15.10;100.00
71361;BME280;59166;48.908;1.870;2023-05-07T00:48:45;100213.56;;;15.08;100.00
71361;BME280;59166;48.908;1.870;2023-05-07T00:53:46;100204.66;;;15.02;100.00
71361;BME280;59166;48.908;1.870;2023-05-07T00:58:48;100201.41;;;15.00;100.00
71361;BME280;59166;48.908;1.870;2023-05-07T01:03:50;100192.75;;;14.93;100.00
71361;BME280;59166;48.908;1.870;2023-05-07T01:08:51;100185.44;;;14.93;100.00
71361;BME280;59166;48.908;1.870;2023-05-07T01:13:53;100180.47;;;15.01;100.00
71361;BME280;59166;48.908;1.870;2023-05-07T01:18:55;100176.94;;;15.00;100.00
71361;BME280;59166;48.908;1.870;2023-05-07T01:23:58;100182.16;;;14.97;100.00
71361;BME280;59166;48.908;1.870;2023-05-07T01:28:59;100185.41;;;14.99;100.00
71361;BME280;59166;48.908;1.870;2023-05-07T01:34:01;100189.53;;;14.91;100.00
71361;BME280;59166;48.908;1.870;2023-05-07T01:39:04;100198.78;;;14.95;100.00
71361;BME280;59166;48.908;1.870;2023-05-07T01:44:06;100205.53;;;14.98;100.00
71361;BME280;59166;48.908;1.870;2023-05-07T01:49:08;100197.69;;;14.91;100.00
71361;BME280;59166;48.908;1.870;2023-05-07T01:54:11;100195.56;;;14.88;100.00
71361;BME280;59166;48.908;1.870;2023-05-07T01:59:11;100195.06;;;14.86;100.00
71361;BME280;59166;48.908;1.870;2023-05-07T02:04:12;100191.28;;;14.82;100.00
71361;BME280;59166;48.908;1.870;2023-05-07T02:09:14;100201.28;;;14.86;100.00
71361;BME280;59166;48.908;1.870;2023-05-07T02:14:15;100203.84;;;14.78;100.00
71361;BME280;59166;48.908;1.870;2023-05-07T02:19:16;100216.13;;;14.75;100.00
71361;BME280;59166;48.908;1.870;2023-05-07T02:24:18;100207.16;;;14.75;100.00
71361;BME280;59166;48.908;1.870;2023-05-07T02:29:19;100216.47;;;14.69;100.00
71361;BME280;59166;48.908;1.870;2023-05-07T02:34:20;100226.66;;;14.58;100.00
71361;BME280;59166;48.908;1.870;2023-05-07T02:39:22;100209.06;;;14.51;100.00
71361;BME280;59166;48.908;1.870;2023-05-07T02:44:23;100205.28;;;14.47;100.00
71361;BME280;59166;48.908;1.870;2023-05-07T02:49:24;100195.56;;;14.40;100.00
71361;BME280;59166;48.908;1.870;2023-05-07T02:54:26;100211.91;;;14.35;100.00
71361;BME280;59166;48.908;1.870;2023-05-07T02:59:27;100220.88;;;14.36;100.00
71361;BME280;59166;48.908;1.870;2023-05-07T03:04:27;100228.66;;;14.48;100.00
71361;BME280;59166;48.908;1.870;2023-05-07T03:09:30;100238.94;;;14.51;100.00
71361;BME280;59166;48.908;1.870;2023-05-07T03:14:30;100235.16;;;14.52;100.00
71361;BME280;59166;48.908;1.870;2023-05-07T03:19:31;100228.69;;;14.42;100.00
71361;BME280;59166;48.908;1.870;2023-05-07T03:24:34;100227.13;;;14.36;100.00
71361;BME280;59166;48.908;1.870;2023-05-07T03:29:35;100237.44;;;14.39;100.00
71361;BME280;59166;48.908;1.870;2023-05-07T03:34:36;100229.56;;;14.38;100.00
71361;BME280;59166;48.908;1.870;2023-05-07T03:39:38;100227.72;;;14.33;100.00
71361;BME280;59166;48.908;1.870;2023-05-07T03:44:39;100238.81;;;14.37;100.00
71361;BME280;59166;48.908;1.870;2023-05-07T03:49:40;100231.75;;;14.36;100.00
71361;BME280;59166;48.908;1.870;2023-05-07T03:54:42;100235.28;;;14.36;100.00
71361;BME280;59166;48.908;1.870;2023-05-07T03:59:43;100242.34;;;14.37;100.00
71361;BME280;59166;48.908;1.870;2023-05-07T04:04:44;100239.09;;;14.35;100.00
71361;BME280;59166;48.908;1.870;2023-05-07T04:09:46;100243.50;;;14.31;100.00
71361;BME280;59166;48.908;1.870;2023-05-07T04:14:47;100252.22;;;14.28;100.00
71361;BME280;59166;48.908;1.870;2023-05-07T04:19:48;100247.88;;;14.27;100.00
71361;BME280;59166;48.908;1.870;2023-05-07T04:24:50;100249.78;;;14.27;100.00
71361;BME280;59166;48.908;1.870;2023-05-07T04:29:51;100252.22;;;14.28;100.00
71361;BME280;59166;48.908;1.870;2023-05-07T04:34:51;100253.88;;;14.24;100.00
71361;BME280;59166;48.908;1.870;2023-05-07T04:39:54;100246.88;;;14.18;100.00
71361;BME280;59166;48.908;1.870;2023-05-07T04:44:55;100249.59;;;14.18;100.00
71361;BME280;59166;48.908;1.870;2023-05-07T04:49:55;100263.19;;;14.18;100.00
71361;BME280;59166;48.908;1.870;2023-05-07T04:54:59;100260.16;;;14.20;100.00
71361;BME280;59166;48.908;1.870;2023-05-07T05:00:00;100261.78;;;14.21;100.00
71361;BME280;59166;48.908;1.870;2023-05-07T05:05:01;100270.03;;;14.11;100.00
71361;BME280;59166;48.908;1.870;2023-05-07T05:10:04;100274.38;;;14.12;100.00
71361;BME280;59166;48.908;1.870;2023-05-07T05:15:07;100276.56;;;14.10;100.00
71361;BME280;59166;48.908;1.870;2023-05-07T05:20:08;100274.97;;;14.04;100.00
71361;BME280;59166;48.908;1.870;2023-05-07T05:25:10;100281.78;;;14.01;100.00
71361;BME280;59166;48.908;1.870;2023-05-07T05:30:12;100278.25;;;14.01;100.00
71361;BME280;59166;48.908;1.870;2023-05-07T05:35:13;100287.75;;;14.03;100.00
71361;BME280;59166;48.908;1.870;2023-05-07T05:40:15;100288.25;;;14.05;100.00
71361;BME280;59166;48.908;1.870;2023-05-07T05:45:16;100299.38;;;14.09;100.00
71361;BME280;59166;48.908;1.870;2023-05-07T05:50:17;100301.84;;;14.05;100.00
71361;BME280;59166;48.908;1.870;2023-05-07T05:55:19;100294.25;;;14.07;100.00
71361;BME280;59166;48.908;1.870;2023-05-07T06:00:21;100306.16;;;14.11;100.00
71361;BME280;59166;48.908;1.870;2023-05-07T06:05:21;100301.47;;;14.22;100.00
71361;BME280;59166;48.908;1.870;2023-05-07T06:10:24;100312.34;;;14.22;100.00
71361;BME280;59166;48.908;1.870;2023-05-07T06:15:25;100308.50;;;14.23;100.00
71361;BME280;59166;48.908;1.870;2023-05-07T06:20:25;100324.81;;;14.23;100.00
71361;BME280;59166;48.908;1.870;2023-05-07T06:25:28;100320.66;;;14.30;100.00
71361;BME280;59166;48.908;1.870;2023-05-07T06:30:28;100319.00;;;14.34;100.00
71361;BME280;59166;48.908;1.870;2023-05-07T06:35:29;100317.91;;;14.35;100.00
71361;BME280;59166;48.908;1.870;2023-05-07T06:40:31;100336.91;;;14.35;100.00
71361;BME280;59166;48.908;1.870;2023-05-07T06:45:32;100330.66;;;14.40;100.00
71361;BME280;59166;48.908;1.870;2023-05-07T06:50:33;100323.28;;;14.46;100.00
71361;BME280;59166;48.908;1.870;2023-05-07T06:55:35;100330.38;;;14.41;100.00
71361;BME280;59166;48.908;1.870;2023-05-07T07:00:36;100326.53;;;14.42;100.00
71361;BME280;59166;48.908;1.870;2023-05-07T07:05:36;100338.13;;;14.53;100.00
71361;BME280;59166;48.908;1.870;2023-05-07T07:10:39;100343.97;;;14.70;100.00
71361;BME280;59166;48.908;1.870;2023-05-07T07:15:40;100347.91;;;14.83;100.00
71361;BME280;59166;48.908;1.870;2023-05-07T07:20:40;100352.72;;;14.96;100.00
71361;BME280;59166;48.908;1.870;2023-05-07T07:25:43;100355.97;;;14.93;100.00
71361;BME280;59166;48.908;1.870;2023-05-07T07:30:43;100359.25;;;14.95;100.00
71361;BME280;59166;48.908;1.870;2023-05-07T07:35:44;100367.00;;;15.07;100.00
71361;BME280;59166;48.908;1.870;2023-05-07T07:40:47;100365.06;;;15.12;100.00
71361;BME280;59166;48.908;1.870;2023-05-07T07:45:48;100366.34;;;15.20;100.00
71361;BME280;59166;48.908;1.870;2023-05-07T07:50:49;100372.81;;;15.24;100.00
71361;BME280;59166;48.908;1.870;2023-05-07T07:55:51;100371.91;;;15.33;100.00
71361;BME280;59166;48.908;1.870;2023-05-07T08:00:52;100383.81;;;15.37;100.00
71361;BME280;59166;48.908;1.870;2023-05-07T08:05:53;100385.28;;;15.30;100.00
71361;BME280;59166;48.908;1.870;2023-05-07T08:10:55;100385.44;;;15.38;100.00
71361;BME280;59166;48.908;1.870;2023-05-07T08:15:56;100396.69;;;15.32;100.00
71361;BME280;59166;48.908;1.870;2023-05-07T08:20:57;100399.41;;;15.32;100.00
71361;BME280;59166;48.908;1.870;2023-05-07T08:25:59;100404.75;;;15.42;100.00
71361;BME280;59166;48.908;1.870;2023-05-07T08:31:00;100406.06;;;15.44;100.00
71361;BME280;59166;48.908;1.870;2023-05-07T08:36:00;100409.22;;;15.57;100.00
71361;BME280;59166;48.908;1.870;2023-05-07T08:41:03;100411.41;;;15.55;100.00
71361;BME280;59166;48.908;1.870;2023-05-07T08:46:04;100418.13;;;15.62;100.00
71361;BME280;59166;48.908;1.870;2023-05-07T08:51:05;100414.69;;;15.75;100.00
71361;BME280;59166;48.908;1.870;2023-05-07T08:56:08;100411.50;;;15.68;100.00
71361;BME280;59166;48.908;1.870;2023-05-07T09:01:10;100418.34;;;15.66;100.00
71361;BME280;59166;48.908;1.870;2023-05-07T09:06:13;100420.44;;;15.74;100.00
71361;BME280;59166;48.908;1.870;2023-05-07T09:11:15;100419.13;;;15.90;100.00
71361;BME280;59166;48.908;1.870;2023-05-07T09:16:16;100422.44;;;15.87;100.00
71361;BME280;59166;48.908;1.870;2023-05-07T09:21:17;100426.72;;;15.93;100.00
71361;BME280;59166;48.908;1.870;2023-05-07T09:26:21;100435.59;;;16.22;100.00
71361;BME280;59166;48.908;1.870;2023-05-07T09:31:22;100428.91;;;16.33;100.00
71361;BME280;59166;48.908;1.870;2023-05-07T09:36:23;100429.66;;;16.20;100.00
71361;BME280;59166;48.908;1.870;2023-05-07T09:41:26;100435.25;;;16.48;100.00
71361;BME280;59166;48.908;1.870;2023-05-07T09:46:30;100433.53;;;16.70;100.00
71361;BME280;59166;48.908;1.870;2023-05-07T09:51:41;100435.19;;;16.85;100.00
71361;BME280;59166;48.908;1.870;2023-05-07T09:56:45;100428.28;;;16.74;100.00
71361;BME280;59166;48.908;1.870;2023-05-07T10:01:49;100435.69;;;16.87;100.00
71361;BME280;59166;48.908;1.870;2023-05-07T10:06:51;100438.78;;;16.99;100.00
71361;BME280;59166;48.908;1.870;2023-05-07T10:11:54;100439.97;;;17.25;100.00
71361;BME280;59166;48.908;1.870;2023-05-07T10:16:56;100432.22;;;17.60;100.00
71361;BME280;59166;48.908;1.870;2023-05-07T10:22:03;100435.13;;;17.90;100.00
71361;BME280;59166;48.908;1.870;2023-05-07T10:27:10;100440.47;;;18.09;100.00
71361;BME280;59166;48.908;1.870;2023-05-07T10:32:38;100450.31;;;17.83;100.00
71361;BME280;59166;48.908;1.870;2023-05-07T10:37:40;100440.28;;;18.06;100.00
71361;BME280;59166;48.908;1.870;2023-05-07T10:42:55;100447.41;;;18.42;100.00
71361;BME280;59166;48.908;1.870;2023-05-07T10:48:07;100445.75;;;18.77;100.00
71361;BME280;59166;48.908;1.870;2023-05-07T10:53:24;100454.81;;;19.09;100.00
71361;BME280;59166;48.908;1.870;2023-05-07T10:58:28;100453.44;;;19.42;100.00
71361;BME280;59166;48.908;1.870;2023-05-07T11:03:29;100462.09;;;20.23;100.00
71361;BME280;59166;48.908;1.870;2023-05-07T11:08:52;100467.94;;;20.47;98.54
71361;BME280;59166;48.908;1.870;2023-05-07T11:13:55;100463.59;;;19.89;94.50
71361;BME280;59166;48.908;1.870;2023-05-07T11:18:56;100470.66;;;19.12;99.51
71361;BME280;59166;48.908;1.870;2023-05-07T11:24:01;100469.72;;;18.58;100.00
71361;BME280;59166;48.908;1.870;2023-05-07T11:29:10;100473.88;;;18.33;100.00
71361;BME280;59166;48.908;1.870;2023-05-07T11:34:12;100482.31;;;18.23;100.00
71361;BME280;59166;48.908;1.870;2023-05-07T11:39:26;100480.38;;;18.24;100.00
71361;BME280;59166;48.908;1.870;2023-05-07T11:44:42;100489.56;;;18.28;100.00
71361;BME280;59166;48.908;1.870;2023-05-07T11:49:43;100481.34;;;18.41;100.00
71361;BME280;59166;48.908;1.870;2023-05-07T11:54:49;100495.03;;;18.01;100.00
71361;BME280;59166;48.908;1.870;2023-05-07T11:59:54;100496.63;;;17.47;100.00
71361;BME280;59166;48.908;1.870;2023-05-07T12:04:55;100498.13;;;17.07;100.00
71361;BME280;59166;48.908;1.870;2023-05-07T12:09:55;100502.28;;;16.86;100.00
71361;BME280;59166;48.908;1.870;2023-05-07T12:14:58;100504.28;;;16.80;100.00
71361;BME280;59166;48.908;1.870;2023-05-07T12:19:59;100494.78;;;16.78;100.00
71361;BME280;59166;48.908;1.870;2023-05-07T12:25:00;100505.91;;;16.81;100.00
71361;BME280;59166;48.908;1.870;2023-05-07T12:30:03;100523.16;;;16.77;100.00
71361;BME280;59166;48.908;1.870;2023-05-07T12:35:06;100527.81;;;16.76;100.00
71361;BME280;59166;48.908;1.870;2023-05-07T12:40:09;100532.97;;;16.78;100.00
71361;BME280;59166;48.908;1.870;2023-05-07T12:45:13;100540.84;;;16.79;100.00
71361;BME280;59166;48.908;1.870;2023-05-07T12:50:14;100548.81;;;16.76;100.00
71361;BME280;59166;48.908;1.870;2023-05-07T12:55:15;100547.72;;;16.58;100.00
71361;BME280;59166;48.908;1.870;2023-05-07T13:00:18;100566.16;;;16.48;100.00
71361;BME280;59166;48.908;1.870;2023-05-07T13:05:32;100558.00;;;16.42;100.00
71361;BME280;59166;48.908;1.870;2023-05-07T13:10:33;100565.59;;;16.45;100.00
71361;BME280;59166;48.908;1.870;2023-05-07T13:15:35;100570.47;;;16.49;100.00
71361;BME280;59166;48.908;1.870;2023-05-07T13:20:36;100568.19;;;16.56;100.00
71361;BME280;59166;48.908;1.870;2023-05-07T13:25:37;100567.28;;;16.65;100.00
71361;BME280;59166;48.908;1.870;2023-05-07T13:30:39;100566.31;;;16.75;100.00
71361;BME280;59166;48.908;1.870;2023-05-07T13:35:40;100564.44;;;16.89;100.00
71361;BME280;59166;48.908;1.870;2023-05-07T13:40:41;100559.81;;;17.08;100.00
71361;BME280;59166;48.908;1.870;2023-05-07T13:45:43;100562.63;;;17.22;100.00
71361;BME280;59166;48.908;1.870;2023-05-07T13:50:44;100560.66;;;17.41;100.00
71361;BME280;59166;48.908;1.870;2023-05-07T13:55:45;100550.34;;;18.25;100.00
71361;BME280;59166;48.908;1.870;2023-05-07T14:00:47;100549.78;;;18.64;100.00
71361;BME280;59166;48.908;1.870;2023-05-07T14:05:48;100556.34;;;19.34;100.00
71361;BME280;59166;48.908;1.870;2023-05-07T14:10:49;100549.66;;;19.80;100.00
71361;BME280;59166;48.908;1.870;2023-05-07T14:15:51;100546.66;;;19.90;100.00
71361;BME280;59166;48.908;1.870;2023-05-07T14:20:52;100556.38;;;19.96;100.00
71361;BME280;59166;48.908;1.870;2023-05-07T14:25:53;100573.28;;;19.59;100.00
71361;BME280;59166;48.908;1.870;2023-05-07T14:30:55;100588.91;;;18.78;100.00
71361;BME280;59166;48.908;1.870;2023-05-07T14:35:56;100587.50;;;18.67;100.00
71361;BME280;59166;48.908;1.870;2023-05-07T14:40:57;100583.94;;;18.66;100.00
71361;BME280;59166;48.908;1.870;2023-05-07T14:45:59;100582.19;;;19.20;100.00
71361;BME280;59166;48.908;1.870;2023-05-07T14:51:00;100585.06;;;19.37;100.00
71361;BME280;59166;48.908;1.870;2023-05-07T14:56:01;100592.88;;;19.08;100.00
71361;BME280;59166;48.908;1.870;2023-05-07T15:01:03;100595.13;;;18.92;100.00
71361;BME280;59166;48.908;1.870;2023-05-07T15:06:04;100589.13;;;19.04;100.00
71361;BME280;59166;48.908;1.870;2023-05-07T15:11:05;100591.06;;;19.39;100.00
71361;BME280;59166;48.908;1.870;2023-05-07T15:16:07;100577.16;;;19.88;97.09
71361;BME280;59166;48.908;1.870;2023-05-07T15:21:08;100586.13;;;19.80;99.52
71361;BME280;59166;48.908;1.870;2023-05-07T15:26:09;100579.72;;;19.93;98.14
71361;BME280;59166;48.908;1.870;2023-05-07T15:31:12;100586.28;;;20.06;98.25
71361;BME280;59166;48.908;1.870;2023-05-07T15:36:12;100593.72;;;19.30;99.29
71361;BME280;59166;48.908;1.870;2023-05-07T15:41:13;100605.19;;;18.83;100.00
71361;BME280;59166;48.908;1.870;2023-05-07T15:46:19;100602.22;;;18.57;98.90
71361;BME280;59166;48.908;1.870;2023-05-07T15:51:20;100611.66;;;18.51;100.00
71361;BME280;59166;48.908;1.870;2023-05-07T15:56:20;100603.22;;;18.48;100.00
71361;BME280;59166;48.908;1.870;2023-05-07T16:01:23;100614.97;;;18.21;100.00
71361;BME280;59166;48.908;1.870;2023-05-07T16:06:23;100626.84;;;17.97;100.00
71361;BME280;59166;48.908;1.870;2023-05-07T16:11:25;100636.59;;;17.90;100.00
71361;BME280;59166;48.908;1.870;2023-05-07T16:16:27;100621.00;;;18.04;100.00
71361;BME280;59166;48.908;1.870;2023-05-07T16:21:28;100630.59;;;18.20;100.00
71361;BME280;59166;48.908;1.870;2023-05-07T16:26:29;100632.50;;;18.33;100.00
71361;BME280;59166;48.908;1.870;2023-05-07T16:31:31;100633.69;;;18.55;100.00
71361;BME280;59166;48.908;1.870;2023-05-07T16:36:32;100633.72;;;18.27;100.00
71361;BME280;59166;48.908;1.870;2023-05-07T16:41:33;100635.19;;;18.06;100.00
71361;BME280;59166;48.908;1.870;2023-05-07T16:46:35;100640.03;;;17.95;100.00
71361;BME280;59166;48.908;1.870;2023-05-07T16:51:36;100649.31;;;17.81;100.00
71361;BME280;59166;48.908;1.870;2023-05-07T16:56:37;100658.84;;;17.83;100.00
71361;BME280;59166;48.908;1.870;2023-05-07T17:01:39;100664.84;;;17.99;100.00
71361;BME280;59166;48.908;1.870;2023-05-07T17:06:40;100657.22;;;17.82;100.00
71361;BME280;59166;48.908;1.870;2023-05-07T17:11:41;100660.44;;;17.84;100.00
71361;BME280;59166;48.908;1.870;2023-05-07T17:16:43;100659.25;;;17.90;100.00
71361;BME280;59166;48.908;1.870;2023-05-07T17:21:44;100666.84;;;18.39;99.69
71361;BME280;59166;48.908;1.870;2023-05-07T17:26:46;100664.31;;;18.29;95.32
71361;BME280;59166;48.908;1.870;2023-05-07T17:31:48;100670.47;;;18.35;91.35
71361;BME280;59166;48.908;1.870;2023-05-07T17:36:49;100674.25;;;18.39;91.50
71361;BME280;59166;48.908;1.870;2023-05-07T17:41:50;100660.69;;;18.02;95.14
71361;BME280;59166;48.908;1.870;2023-05-07T17:46:52;100673.41;;;17.79;92.66
71361;BME280;59166;48.908;1.870;2023-05-07T17:51:53;100680.22;;;17.44;95.54
71361;BME280;59166;48.908;1.870;2023-05-07T17:56:54;100677.00;;;17.23;97.26
71361;BME280;59166;48.908;1.870;2023-05-07T18:01:56;100685.19;;;17.00;98.21
71361;BME280;59166;48.908;1.870;2023-05-07T18:06:57;100697.41;;;16.65;98.29
71361;BME280;59166;48.908;1.870;2023-05-07T18:11:58;100702.72;;;16.51;100.00
71361;BME280;59166;48.908;1.870;2023-05-07T18:17:00;100702.38;;;16.34;100.00
71361;BME280;59166;48.908;1.870;2023-05-07T18:22:01;100714.44;;;16.28;100.00
71361;BME280;59166;48.908;1.870;2023-05-07T18:27:02;100721.00;;;16.22;100.00
71361;BME280;59166;48.908;1.870;2023-05-07T18:32:05;100726.03;;;16.05;100.00
71361;BME280;59166;48.908;1.870;2023-05-07T18:37:05;100728.59;;;15.96;100.00
71361;BME280;59166;48.908;1.870;2023-05-07T18:42:06;100733.06;;;15.82;100.00
71361;BME280;59166;48.908;1.870;2023-05-07T18:47:08;100739.16;;;15.69;100.00
71361;BME280;59166;48.908;1.870;2023-05-07T18:52:09;100746.56;;;15.58;100.00
71361;BME280;59166;48.908;1.870;2023-05-07T18:57:10;100756.44;;;15.49;100.00
71361;BME280;59166;48.908;1.870;2023-05-07T19:02:12;100762.78;;;15.34;100.00
71361;BME280;59166;48.908;1.870;2023-05-07T19:07:14;100763.38;;;15.26;100.00
71361;BME280;59166;48.908;1.870;2023-05-07T19:12:14;100762.34;;;15.12;100.00
71361;BME280;59166;48.908;1.870;2023-05-07T19:17:17;100772.72;;;15.00;100.00
71361;BME280;59166;48.908;1.870;2023-05-07T19:22:18;100786.91;;;14.82;100.00
71361;BME280;59166;48.908;1.870;2023-05-07T19:27:19;100792.91;;;14.74;100.00
71361;BME280;59166;48.908;1.870;2023-05-07T19:32:21;100809.25;;;14.64;100.00
71361;BME280;59166;48.908;1.870;2023-05-07T19:37:22;100820.69;;;14.56;100.00
71361;BME280;59166;48.908;1.870;2023-05-07T19:42:23;100810.91;;;14.50;100.00
71361;BME280;59166;48.908;1.870;2023-05-07T19:47:25;100816.34;;;14.45;100.00
71361;BME280;59166;48.908;1.870;2023-05-07T19:52:26;100819.06;;;14.39;100.00
71361;BME280;59166;48.908;1.870;2023-05-07T19:57:27;100828.59;;;14.32;100.00
71361;BME280;59166;48.908;1.870;2023-05-07T20:02:29;100832.38;;;14.26;100.00
71361;BME280;59166;48.908;1.870;2023-05-07T20:07:30;100844.63;;;14.18;100.00
71361;BME280;59166;48.908;1.870;2023-05-07T20:12:31;100855.22;;;14.05;100.00
71361;BME280;59166;48.908;1.870;2023-05-07T20:17:33;100857.38;;;13.98;100.00
71361;BME280;59166;48.908;1.870;2023-05-07T20:22:35;100867.94;;;13.89;100.00
71361;BME280;59166;48.908;1.870;2023-05-07T20:27:37;100866.03;;;13.84;100.00
71361;BME280;59166;48.908;1.870;2023-05-07T20:32:39;100866.28;;;13.78;100.00
71361;BME280;59166;48.908;1.870;2023-05-07T20:37:40;100878.16;;;13.67;100.00
71361;BME280;59166;48.908;1.870;2023-05-07T20:42:41;100880.31;;;13.60;100.00
71361;BME280;59166;48.908;1.870;2023-05-07T20:47:43;100880.81;;;13.47;100.00
71361;BME280;59166;48.908;1.870;2023-05-07T20:52:44;100888.91;;;13.41;100.00
71361;BME280;59166;48.908;1.870;2023-05-07T20:57:44;100887.25;;;13.30;100.00
71361;BME280;59166;48.908;1.870;2023-05-07T21:02:47;100885.03;;;13.22;100.00
71361;BME280;59166;48.908;1.870;2023-05-07T21:07:47;100889.88;;;13.15;100.00
71361;BME280;59166;48.908;1.870;2023-05-07T21:12:48;100894.72;;;13.08;100.00
71361;BME280;59166;48.908;1.870;2023-05-07T21:17:51;100895.75;;;13.02;100.00
71361;BME280;59166;48.908;1.870;2023-05-07T21:22:51;100912.03;;;13.02;100.00
71361;BME280;59166;48.908;1.870;2023-05-07T21:27:52;100906.56;;;12.97;100.00
71361;BME280;59166;48.908;1.870;2023-05-07T21:32:54;100909.81;;;12.94;100.00
71361;BME280;59166;48.908;1.870;2023-05-07T21:37:55;100901.88;;;12.82;100.00
71361;BME280;59166;48.908;1.870;2023-05-07T21:42:57;100914.00;;;12.75;100.00
71361;BME280;59166;48.908;1.870;2023-05-07T21:47:59;100916.72;;;12.75;100.00
71361;BME280;59166;48.908;1.870;2023-05-07T21:53:00;100913.78;;;12.81;100.00
71361;BME280;59166;48.908;1.870;2023-05-07T21:58:01;100923.25;;;12.79;100.00
71361;BME280;59166;48.908;1.870;2023-05-07T22:03:03;100922.91;;;12.70;100.00
71361;BME280;59166;48.908;1.870;2023-05-07T22:08:04;100919.91;;;12.67;100.00
71361;BME280;59166;48.908;1.870;2023-05-07T22:13:05;100920.38;;;12.59;100.00
71361;BME280;59166;48.908;1.870;2023-05-07T22:18:07;100927.09;;;12.51;100.00
71361;BME280;59166;48.908;1.870;2023-05-07T22:23:08;100915.91;;;12.43;100.00
71361;BME280;59166;48.908;1.870;2023-05-07T22:28:09;100934.00;;;12.37;100.00
71361;BME280;59166;48.908;1.870;2023-05-07T22:33:11;100938.56;;;12.31;100.00
71361;BME280;59166;48.908;1.870;2023-05-07T22:38:12;100933.63;;;12.28;100.00
71361;BME280;59166;48.908;1.870;2023-05-07T22:43:13;100927.09;;;12.24;100.00
71361;BME280;59166;48.908;1.870;2023-05-07T22:48:15;100926.03;;;12.25;100.00
71361;BME280;59166;48.908;1.870;2023-05-07T22:53:16;100942.72;;;12.17;100.00
71361;BME280;59166;48.908;1.870;2023-05-07T22:58:17;100944.81;;;12.10;100.00
71361;BME280;59166;48.908;1.870;2023-05-07T23:03:19;100940.97;;;12.06;100.00
71361;BME280;59166;48.908;1.870;2023-05-07T23:08:20;100953.09;;;11.99;100.00
71361;BME280;59166;48.908;1.870;2023-05-07T23:13:21;100970.00;;;11.89;100.00
71361;BME280;59166;48.908;1.870;2023-05-07T23:18:23;100970.41;;;11.76;100.00
71361;BME280;59166;48.908;1.870;2023-05-07T23:23:24;100954.34;;;11.69;100.00
71361;BME280;59166;48.908;1.870;2023-05-07T23:28:25;100962.47;;;11.69;100.00
71361;BME280;59166;48.908;1.870;2023-05-07T23:33:27;100962.22;;;11.71;100.00
71361;BME280;59166;48.908;1.870;2023-05-07T23:38:28;100963.28;;;11.70;100.00
71361;BME280;59166;48.908;1.870;2023-05-07T23:43:29;100967.00;;;11.64;100.00
71361;BME280;59166;48.908;1.870;2023-05-07T23:53:32;100950.69;;;11.59;100.00
71361;BME280;59166;48.908;1.870;2023-05-07T23:58:33;100945.53;;;11.57;100.00
